Time;durP1;ratioP1;P1;durP2;ratioP2;P2;SDS_P1;SDS_P2;PMS_P1;PMS_P2;Temp;Humidity;BMP_temperature;BMP_pressure;BME280_temperature;BME280_humidity;BME280_pressure;Samples;Min_cycle;Max_cycle;Signal;HPM_P1;HPM_P2
2022/01/09 00:01:27;;;;;;;14.20;8.02;;;-0.90;92.00;;;;;;5018682;28;20060;-68
2022/01/09 00:03:53;;;;;;;10.50;5.88;;;-0.90;91.90;;;;;;5015679;28;20053;-68
2022/01/09 00:06:19;;;;;;;10.52;7.10;;;-0.90;92.00;;;;;;5019149;28;20040;-67
2022/01/09 00:08:45;;;;;;;13.23;8.02;;;-0.80;92.30;;;;;;5018866;28;20511;-68
2022/01/09 00:11:12;;;;;;;13.20;7.72;;;-0.80;91.90;;;;;;5018850;28;20024;-68
2022/01/09 00:13:38;;;;;;;10.30;6.50;;;-0.70;91.80;;;;;;5016985;28;20100;-68
2022/01/09 00:16:07;;;;;;;11.88;7.07;;;-0.70;92.00;;;;;;5016143;28;20045;-67
2022/01/09 00:18:33;;;;;;;16.95;8.48;;;-0.70;92.40;;;;;;5015576;28;20053;-67
2022/01/09 00:21:05;;;;;;;13.95;8.77;;;-0.60;92.30;;;;;;5020092;28;20110;-66
2022/01/09 00:23:34;;;;;;;14.93;8.10;;;-0.50;91.90;;;;;;5020466;28;20037;-66
2022/01/09 00:26:00;;;;;;;18.60;9.93;;;-0.50;91.90;;;;;;5017467;28;20068;-66
2022/01/09 00:28:26;;;;;;;12.50;8.23;;;-0.60;91.70;;;;;;5016891;28;20029;-67
2022/01/09 00:30:52;;;;;;;12.95;8.02;;;-0.80;92.00;;;;;;5019447;28;20060;-66
2022/01/09 00:33:22;;;;;;;15.55;8.35;;;-0.80;92.20;;;;;;5012697;28;20033;-66
2022/01/09 00:35:49;;;;;;;13.38;8.77;;;-0.80;92.50;;;;;;5015047;28;20101;-66
2022/01/09 00:38:14;;;;;;;14.27;9.13;;;-0.70;93.30;;;;;;5015205;28;20033;-67
2022/01/09 00:40:40;;;;;;;15.20;8.98;;;-0.70;92.60;;;;;;5016519;28;20033;-67
2022/01/09 00:43:08;;;;;;;13.82;7.80;;;-0.70;92.80;;;;;;5018418;28;20039;-67
2022/01/09 00:45:35;;;;;;;12.40;7.50;;;-0.70;92.80;;;;;;5016001;28;20076;-66
2022/01/09 00:48:01;;;;;;;11.18;7.00;;;-0.70;92.70;;;;;;5018031;28;20065;-66
2022/01/09 00:50:27;;;;;;;13.18;7.35;;;-0.70;92.80;;;;;;5016676;28;20376;-66
2022/01/09 00:52:52;;;;;;;12.82;7.53;;;-0.70;92.80;;;;;;5017857;28;20145;-66
2022/01/09 00:55:18;;;;;;;11.30;6.57;;;-0.70;93.00;;;;;;5018047;28;20502;-66
2022/01/09 00:57:44;;;;;;;12.52;7.97;;;-0.70;93.10;;;;;;5019708;28;20025;-67
2022/01/09 01:00:11;;;;;;;12.80;8.10;;;-0.70;93.10;;;;;;5016886;28;20022;-67
2022/01/09 01:02:37;;;;;;;14.50;8.68;;;-0.80;93.10;;;;;;5020227;28;20038;-65
2022/01/09 01:05:05;;;;;;;14.18;8.20;;;-0.80;93.00;;;;;;5018245;28;20656;-66
2022/01/09 01:07:30;;;;;;;15.07;9.50;;;-0.80;93.00;;;;;;5021526;28;20064;-66
2022/01/09 01:09:59;;;;;;;17.73;9.38;;;-0.70;93.20;;;;;;5020397;28;20504;-66
2022/01/09 01:12:26;;;;;;;14.55;9.15;;;-0.70;93.10;;;;;;5021515;28;20034;-66
2022/01/09 01:14:52;;;;;;;16.08;10.63;;;-0.70;93.10;;;;;;5020459;28;20037;-66
2022/01/09 01:17:19;;;;;;;17.98;11.85;;;-0.70;92.90;;;;;;5014814;28;20025;-65
2022/01/09 01:19:46;;;;;;;17.17;10.95;;;-0.70;93.00;;;;;;5017086;28;20029;-67
2022/01/09 01:22:11;;;;;;;14.25;10.38;;;-0.70;92.90;;;;;;5019146;28;20029;-66
2022/01/09 01:24:38;;;;;;;16.52;10.52;;;-0.80;92.70;;;;;;5017829;28;20025;-66
2022/01/09 01:27:05;;;;;;;17.35;11.73;;;-0.80;92.70;;;;;;5015746;28;20393;-66
2022/01/09 01:29:30;;;;;;;23.13;12.23;;;-0.90;92.50;;;;;;5019807;28;20491;-66
2022/01/09 01:31:56;;;;;;;21.63;12.07;;;-1.00;92.70;;;;;;5015841;28;20029;-65
2022/01/09 01:34:22;;;;;;;19.13;11.48;;;-1.10;93.10;;;;;;5017581;28;20145;-65
2022/01/09 01:36:47;;;;;;;17.05;10.65;;;-1.20;93.10;;;;;;5018186;28;20088;-65
2022/01/09 01:39:13;;;;;;;18.55;11.43;;;-1.20;93.10;;;;;;5016150;28;20038;-65
2022/01/09 01:41:39;;;;;;;17.80;10.75;;;-1.20;93.00;;;;;;5019052;28;20060;-64
2022/01/09 01:44:09;;;;;;;17.33;10.82;;;-1.20;93.20;;;;;;5015174;28;20037;-65
2022/01/09 01:46:35;;;;;;;19.42;10.90;;;-1.20;93.20;;;;;;5016678;28;20025;-66
2022/01/09 01:49:02;;;;;;;19.45;10.77;;;-1.20;92.80;;;;;;5020567;28;20148;-67
2022/01/09 01:51:28;;;;;;;16.50;9.57;;;-1.30;92.70;;;;;;5016601;28;20088;-67
2022/01/09 01:53:57;;;;;;;15.88;9.95;;;-1.40;92.60;;;;;;5018656;28;20026;-66
2022/01/09 01:56:23;;;;;;;18.80;10.93;;;-1.40;92.40;;;;;;5017485;28;20663;-67
2022/01/09 01:58:50;;;;;;;18.35;10.57;;;-1.50;92.50;;;;;;5019518;28;20119;-66
2022/01/09 02:01:16;;;;;;;16.10;10.80;;;-1.50;92.60;;;;;;5016650;28;20026;-67
2022/01/09 02:03:42;;;;;;;21.73;12.05;;;-1.50;92.70;;;;;;5018618;28;20041;-67
2022/01/09 02:06:08;;;;;;;21.02;10.82;;;-1.60;92.80;;;;;;5016774;28;20040;-66
2022/01/09 02:08:34;;;;;;;16.52;10.43;;;-1.60;92.90;;;;;;5016616;28;20042;-67
2022/01/09 02:10:59;;;;;;;16.98;11.25;;;-1.60;93.00;;;;;;5015834;28;20033;-66
2022/01/09 02:13:25;;;;;;;19.98;11.90;;;-1.70;93.20;;;;;;5019134;28;20499;-66
2022/01/09 02:15:56;;;;;;;17.95;10.63;;;-1.70;92.80;;;;;;5015075;28;20033;-67
2022/01/09 02:18:22;;;;;;;18.15;11.07;;;-1.80;93.10;;;;;;5016495;28;20045;-66
2022/01/09 02:20:50;;;;;;;19.30;10.57;;;-1.80;93.00;;;;;;5017349;28;20037;-67
2022/01/09 02:23:17;;;;;;;17.38;11.32;;;-1.80;93.70;;;;;;5017870;28;20025;-68
2022/01/09 02:25:43;;;;;;;17.17;10.50;;;-1.70;94.00;;;;;;5021162;28;20034;-67
2022/01/09 02:28:10;;;;;;;16.38;10.30;;;-1.70;93.80;;;;;;5021438;28;20029;-68
2022/01/09 02:30:36;;;;;;;16.73;10.20;;;-1.70;93.30;;;;;;5018096;28;20026;-67
2022/01/09 02:33:05;;;;;;;18.00;10.82;;;-1.70;93.40;;;;;;5018292;28;20483;-67
2022/01/09 02:35:31;;;;;;;19.23;10.43;;;-1.80;93.60;;;;;;5018153;28;20029;-68
2022/01/09 02:37:57;;;;;;;17.40;10.48;;;-1.70;93.70;;;;;;5019160;28;20503;-69
2022/01/09 02:40:23;;;;;;;19.77;10.68;;;-1.70;93.70;;;;;;5016252;28;20072;-69
2022/01/09 02:42:51;;;;;;;17.00;10.07;;;-1.70;93.40;;;;;;5018866;28;20021;-66
2022/01/09 02:45:23;;;;;;;19.17;11.02;;;-1.70;93.20;;;;;;5019344;28;20121;-67
2022/01/09 02:47:49;;;;;;;20.98;12.25;;;-1.80;93.30;;;;;;5020651;28;20131;-67
2022/01/09 02:52:59;;;;;;;18.65;11.35;;;-2.40;94.50;;;;;;5020895;28;20062;-67
2022/01/09 02:55:26;;;;;;;23.67;12.75;;;-2.30;94.60;;;;;;5019729;28;20041;-67
2022/01/09 02:57:53;;;;;;;23.85;14.10;;;-2.20;94.60;;;;;;5024701;28;21417;-67
2022/01/09 03:00:26;;;;;;;15.95;9.88;;;-2.00;94.50;;;;;;5020489;28;20496;-67
2022/01/09 03:02:52;;;;;;;17.08;10.90;;;-2.00;93.80;;;;;;5019740;28;20044;-67
2022/01/09 03:05:18;;;;;;;20.15;10.80;;;-2.00;93.00;;;;;;5017924;28;20028;-67
2022/01/09 03:07:45;;;;;;;21.42;11.27;;;-2.10;93.30;;;;;;5018727;28;20116;-67
2022/01/09 03:10:12;;;;;;;20.45;12.48;;;-2.10;93.20;;;;;;5017099;28;20112;-67
2022/01/09 03:12:42;;;;;;;20.50;12.10;;;-2.10;93.30;;;;;;5017585;28;21070;-67
2022/01/09 03:15:08;;;;;;;18.27;11.80;;;-2.20;93.30;;;;;;5015420;28;20065;-69
2022/01/09 03:17:34;;;;;;;21.00;12.90;;;-2.20;93.40;;;;;;5016140;28;20026;-67
2022/01/09 03:20:00;;;;;;;21.92;12.93;;;-2.30;93.60;;;;;;5016407;28;20029;-68
2022/01/09 03:22:29;;;;;;;30.48;13.07;;;-2.30;93.90;;;;;;5015872;28;20076;-68
2022/01/09 03:24:55;;;;;;;19.63;11.80;;;-2.30;93.90;;;;;;5014931;28;20036;-68
2022/01/09 03:27:21;;;;;;;20.05;12.77;;;-2.20;93.50;;;;;;5015912;28;20119;-68
2022/01/09 03:29:46;;;;;;;18.35;11.02;;;-2.20;93.60;;;;;;5015046;28;20034;-68
2022/01/09 03:32:12;;;;;;;14.77;9.70;;;-2.20;93.10;;;;;;5016843;28;20534;-68
2022/01/09 03:34:38;;;;;;;18.77;9.70;;;-2.30;92.50;;;;;;5015410;28;20030;-68
2022/01/09 03:37:04;;;;;;;15.70;10.02;;;-2.40;92.60;;;;;;5017678;28;20029;-69
2022/01/09 03:39:30;;;;;;;16.20;9.90;;;-2.40;92.80;;;;;;5015351;28;20106;-69
2022/01/09 03:41:59;;;;;;;15.63;10.32;;;-2.40;92.90;;;;;;5015572;28;20112;-69
2022/01/09 03:44:26;;;;;;;15.85;9.38;;;-2.50;93.00;;;;;;5015334;28;20030;-69
2022/01/09 03:46:52;;;;;;;14.65;7.97;;;-2.50;92.90;;;;;;5015730;28;20680;-69
2022/01/09 03:49:18;;;;;;;15.50;8.55;;;-2.50;92.60;;;;;;5017107;28;20391;-68
2022/01/09 03:51:46;;;;;;;17.23;10.02;;;-2.50;92.80;;;;;;5016403;28;20029;-69
2022/01/09 03:54:13;;;;;;;12.82;9.00;;;-2.50;93.00;;;;;;5015661;28;20034;-69
2022/01/09 03:56:38;;;;;;;19.17;9.02;;;-2.60;92.70;;;;;;5014536;28;20065;-69
2022/01/09 03:59:04;;;;;;;16.80;10.32;;;-2.70;92.50;;;;;;5015844;28;20129;-70
2022/01/09 04:01:30;;;;;;;16.15;9.27;;;-2.70;92.60;;;;;;5014943;28;20046;-69
2022/01/09 04:03:55;;;;;;;15.32;8.63;;;-2.80;92.50;;;;;;5014459;28;20034;-69
2022/01/09 04:06:23;;;;;;;13.55;8.63;;;-2.80;92.60;;;;;;5020609;28;20037;-70
2022/01/09 04:08:51;;;;;;;14.90;9.10;;;-2.80;92.60;;;;;;5021391;28;20037;-69
2022/01/09 04:11:23;;;;;;;14.63;9.18;;;-2.80;92.80;;;;;;5019659;28;20041;-69
2022/01/09 04:13:49;;;;;;;;;;;-2.90;92.90;;;;;;5023972;28;20096;-70
2022/01/09 04:16:15;;;;;;;16.73;10.10;;;-2.90;92.90;;;;;;5018748;28;19917;-69
2022/01/09 04:18:40;;;;;;;14.68;9.43;;;-2.90;93.00;;;;;;5018828;28;20144;-69
2022/01/09 04:21:06;;;;;;;18.58;10.43;;;-2.80;92.90;;;;;;5022415;28;20029;-69
2022/01/09 04:23:31;;;;;;;15.98;10.57;;;-2.90;92.80;;;;;;5021476;28;20315;-70
2022/01/09 04:25:57;;;;;;;15.80;9.38;;;-2.90;92.90;;;;;;5019330;28;20025;-69
2022/01/09 04:28:23;;;;;;;12.38;6.80;;;-3.00;93.00;;;;;;5019319;28;20041;-69
2022/01/09 04:30:48;;;;;;;12.63;7.63;;;-3.00;92.20;;;;;;5020610;28;20037;-70
2022/01/09 04:33:14;;;;;;;15.40;8.02;;;-3.10;92.20;;;;;;5018595;28;20026;-69
2022/01/09 04:35:41;;;;;;;12.10;7.60;;;-3.10;92.40;;;;;;5021960;28;20030;-69
2022/01/09 04:38:07;;;;;;;14.20;8.65;;;-3.10;92.30;;;;;;5021427;28;20050;-69
2022/01/09 04:40:33;;;;;;;19.92;9.68;;;-3.10;92.50;;;;;;5023159;28;20026;-69
2022/01/09 04:43:02;;;;;;;14.30;7.95;;;-3.10;92.60;;;;;;5020469;28;20037;-69
2022/01/09 04:45:29;;;;;;;9.05;5.28;;;-3.20;92.90;;;;;;5019887;28;20034;-69
2022/01/09 04:48:00;;;;;;;10.80;6.22;;;-3.20;92.50;;;;;;5016300;28;20045;-69
2022/01/09 04:50:28;;;;;;;12.27;7.82;;;-3.20;92.40;;;;;;5020990;28;20045;-69
2022/01/09 04:53:04;;;;;;;12.38;6.88;;;-3.30;92.70;;;;;;5019042;28;20045;-69
2022/01/09 04:55:31;;;;;;;13.70;8.70;;;-3.30;93.00;;;;;;5020674;28;20113;-69
2022/01/09 04:57:57;;;;;;;9.95;5.40;;;-3.30;93.20;;;;;;5020657;28;20061;-69
2022/01/09 05:00:23;;;;;;;6.18;4.00;;;-3.40;92.50;;;;;;5020833;28;20025;-69
2022/01/09 05:02:49;;;;;;;7.28;4.80;;;-3.40;92.00;;;;;;5016632;28;20036;-69
2022/01/09 05:05:15;;;;;;;6.72;4.30;;;-3.50;92.20;;;;;;5017290;28;20041;-69
2022/01/09 05:07:41;;;;;;;7.40;4.30;;;-3.50;91.80;;;;;;5020816;28;20048;-68
2022/01/09 05:10:09;;;;;;;9.98;5.18;;;-3.60;92.40;;;;;;5019616;28;20033;-68
2022/01/09 05:12:35;;;;;;;10.00;5.88;;;-3.50;92.20;;;;;;5018975;28;20407;-70
2022/01/09 05:15:02;;;;;;;13.85;7.07;;;-3.40;92.70;;;;;;5016554;28;20030;-69
2022/01/09 05:17:28;;;;;;;14.48;8.32;;;-3.40;93.00;;;;;;5019531;28;20500;-69
2022/01/09 05:19:57;;;;;;;11.43;6.38;;;-3.40;93.00;;;;;;5020112;28;20026;-68
2022/01/09 05:22:27;;;;;;;12.00;7.57;;;-3.60;92.50;;;;;;5018844;28;20120;-69
2022/01/09 05:24:54;;;;;;;11.68;6.95;;;-4.10;93.30;;;;;;5020737;28;20026;-69
2022/01/09 05:27:21;;;;;;;12.13;6.93;;;-4.20;93.70;;;;;;5016905;28;20032;-69
2022/01/09 05:29:47;;;;;;;9.77;5.97;;;-4.10;93.80;;;;;;5021371;28;20037;-69
2022/01/09 05:32:13;;;;;;;13.43;6.57;;;-4.00;92.80;;;;;;5016461;28;20487;-69
2022/01/09 05:34:38;;;;;;;13.25;7.53;;;-4.00;92.80;;;;;;5020503;28;20031;-69
2022/01/09 05:37:05;;;;;;;16.13;9.27;;;-3.90;93.00;;;;;;5018571;28;20079;-69
2022/01/09 05:39:34;;;;;;;29.25;15.15;;;-3.90;92.80;;;;;;5018710;28;20076;-70
2022/01/09 05:42:03;;;;;;;56.42;25.40;;;-4.00;92.60;;;;;;5018444;28;20030;-67
2022/01/09 05:44:28;;;;;;;45.22;22.35;;;-4.10;92.80;;;;;;5016050;28;20055;-68
2022/01/09 05:46:54;;;;;;;62.13;29.25;;;-4.30;93.50;;;;;;5018709;28;20503;-68
2022/01/09 05:49:20;;;;;;;71.53;30.58;;;-4.20;93.90;;;;;;5017246;28;20108;-68
2022/01/09 05:51:45;;;;;;;36.53;18.42;;;-4.10;93.80;;;;;;5018267;28;20022;-68
2022/01/09 05:54:11;;;;;;;29.77;15.27;;;-4.10;93.40;;;;;;5018717;28;20025;-68
2022/01/09 05:56:37;;;;;;;21.75;11.40;;;-4.00;93.10;;;;;;5012022;28;20491;-69
2022/01/09 05:59:03;;;;;;;11.38;6.53;;;-4.00;93.00;;;;;;5018453;28;20168;-69
2022/01/09 06:01:29;;;;;;;10.25;5.45;;;-4.00;92.90;;;;;;5019029;28;20528;-69
2022/01/09 06:03:54;;;;;;;10.25;5.80;;;-4.00;92.60;;;;;;5016106;28;20116;-68
2022/01/09 06:06:20;;;;;;;13.00;6.53;;;-4.30;92.50;;;;;;5019308;28;20025;-69
2022/01/09 06:08:46;;;;;;;11.10;7.22;;;-4.40;93.30;;;;;;5015671;28;20896;-69
2022/01/09 06:11:13;;;;;;;19.38;10.80;;;-4.40;93.50;;;;;;5020556;28;20029;-69
2022/01/09 06:13:38;;;;;;;14.73;8.00;;;-4.30;93.50;;;;;;5019237;28;20228;-69
2022/01/09 06:16:04;;;;;;;22.08;13.07;;;-4.30;93.20;;;;;;5019885;28;20033;-69
2022/01/09 06:18:30;;;;;;;15.98;10.20;;;-4.30;93.40;;;;;;5021615;28;20502;-69
2022/01/09 06:20:56;;;;;;;14.60;8.68;;;-4.20;93.20;;;;;;5021145;28;20033;-69
2022/01/09 06:23:23;;;;;;;24.27;13.95;;;-4.20;93.10;;;;;;5021715;28;20030;-69
2022/01/09 06:25:52;;;;;;;33.58;19.08;;;-4.20;93.20;;;;;;5019194;28;20029;-68
2022/01/09 06:28:18;;;;;;;32.42;18.55;;;-4.10;93.50;;;;;;5019283;28;20042;-68
2022/01/09 06:30:45;;;;;;;12.88;8.90;;;-4.10;93.50;;;;;;5018163;28;20091;-68
2022/01/09 06:33:11;;;;;;;9.43;5.35;;;-4.10;93.30;;;;;;5021349;28;20037;-69
2022/01/09 06:35:38;;;;;;;13.43;6.60;;;-4.10;92.50;;;;;;5015635;28;20017;-69
2022/01/09 06:38:04;;;;;;;11.32;5.78;;;-4.10;92.00;;;;;;5019637;28;20033;-69
2022/01/09 06:40:31;;;;;;;10.32;6.05;;;-4.30;92.10;;;;;;5019426;28;20033;-69
2022/01/09 06:42:56;;;;;;;14.23;9.15;;;-4.30;92.50;;;;;;5023215;28;20052;-69
2022/01/09 06:45:24;;;;;;;48.58;24.00;;;-4.30;92.80;;;;;;5021043;28;20029;-68
2022/01/09 06:47:51;;;;;;;78.63;39.47;;;-4.20;93.10;;;;;;5023101;28;20611;-69
2022/01/09 06:50:17;;;;;;;163.63;78.90;;;-4.20;92.90;;;;;;5020852;28;20025;-69
2022/01/09 06:52:43;;;;;;;158.32;75.53;;;-4.20;93.30;;;;;;5021158;28;20029;-68
2022/01/09 06:55:09;;;;;;;103.88;52.20;;;-4.10;93.60;;;;;;5021440;28;20396;-69
2022/01/09 06:57:35;;;;;;;18.60;10.43;;;-4.10;93.40;;;;;;5017932;28;20492;-69
2022/01/09 07:00:01;;;;;;;11.02;6.45;;;-4.10;92.40;;;;;;5019248;28;20061;-69
2022/01/09 07:02:27;;;;;;;10.18;6.00;;;-4.20;92.30;;;;;;5022379;28;20053;-69
2022/01/09 07:04:52;;;;;;;13.30;7.38;;;-4.20;92.00;;;;;;5022005;28;20117;-69
2022/01/09 07:07:18;;;;;;;14.00;9.23;;;-4.30;92.00;;;;;;5021231;28;20037;-69
2022/01/09 07:09:44;;;;;;;26.55;13.82;;;-4.60;92.60;;;;;;5025176;28;20107;-69
2022/01/09 07:12:09;;;;;;;15.57;8.73;;;-4.50;93.10;;;;;;5019239;28;20112;-69
2022/01/09 07:14:36;;;;;;;20.33;10.50;;;-4.30;93.20;;;;;;5021722;28;20037;-69
2022/01/09 07:17:01;;;;;;;22.60;12.52;;;-4.20;93.30;;;;;;5019952;28;20036;-69
2022/01/09 07:19:28;;;;;;;25.92;15.77;;;-4.10;93.60;;;;;;5023932;28;20029;-69
2022/01/09 07:21:53;;;;;;;22.83;13.40;;;-4.10;93.50;;;;;;5019180;28;20030;-69
2022/01/09 07:24:19;;;;;;;16.55;10.60;;;-4.00;93.40;;;;;;5019624;28;20033;-70
2022/01/09 07:26:45;;;;;;;19.80;10.13;;;-3.90;93.50;;;;;;5016342;28;20034;-70
2022/01/09 07:29:10;;;;;;;20.65;11.80;;;-4.00;93.40;;;;;;5021276;28;20045;-69
2022/01/09 07:31:36;;;;;;;26.10;14.38;;;-4.00;94.00;;;;;;5020385;28;20029;-69
2022/01/09 07:34:02;;;;;;;39.75;20.45;;;-3.90;93.70;;;;;;5019597;28;20479;-69
2022/01/09 07:36:27;;;;;;;37.03;20.85;;;-3.80;93.70;;;;;;5021325;28;20040;-69
2022/01/09 07:38:53;;;;;;;43.13;24.25;;;-3.60;93.90;;;;;;5019921;28;20121;-68
2022/01/09 07:41:20;;;;;;;35.67;23.15;;;-3.50;93.80;;;;;;5020286;28;20057;-68
2022/01/09 07:43:46;;;;;;;39.83;23.63;;;-3.40;93.70;;;;;;5018757;28;20141;-68
2022/01/09 07:46:11;;;;;;;38.75;24.17;;;-3.20;93.90;;;;;;5019619;28;20480;-69
2022/01/09 07:48:37;;;;;;;37.88;23.00;;;-3.10;93.90;;;;;;5018008;28;20064;-68
2022/01/09 07:51:03;;;;;;;39.30;21.65;;;-2.90;93.80;;;;;;5020385;28;20026;-69
2022/01/09 07:53:32;;;;;;;35.95;21.98;;;-2.70;93.90;;;;;;5020443;28;20041;-69
2022/01/09 07:55:58;;;;;;;34.00;22.52;;;-2.50;93.60;;;;;;5021675;28;20120;-68
2022/01/09 07:58:23;;;;;;;40.80;25.40;;;-2.30;93.40;;;;;;5020576;28;20590;-67
2022/01/09 08:00:49;;;;;;;213.85;85.10;;;-2.10;93.40;;;;;;5019782;28;20033;-68
2022/01/09 08:03:15;;;;;;;231.52;94.93;;;-1.90;93.30;;;;;;5019262;28;20091;-68
2022/01/09 08:05:41;;;;;;;158.57;68.75;;;-1.60;93.40;;;;;;5017488;28;20726;-69
2022/01/09 08:08:07;;;;;;;138.52;63.53;;;-1.50;93.40;;;;;;5026164;28;20458;-69
2022/01/09 08:10:34;;;;;;;119.63;58.03;;;-1.30;93.00;;;;;;5019457;28;20032;-68
2022/01/09 08:13:00;;;;;;;89.97;47.97;;;-1.20;92.40;;;;;;5021357;28;20061;-68
2022/01/09 08:15:28;;;;;;;94.53;51.08;;;-1.10;92.20;;;;;;5018597;28;20033;-66
2022/01/09 08:17:54;;;;;;;105.63;58.20;;;-1.00;92.20;;;;;;5018129;28;20037;-67
2022/01/09 08:20:20;;;;;;;96.85;58.65;;;-1.10;92.40;;;;;;5020029;28;20055;-68
2022/01/09 08:22:46;;;;;;;101.47;60.30;;;-1.20;92.80;;;;;;5019415;28;20042;-67
2022/01/09 08:25:14;;;;;;;90.15;55.13;;;-1.30;93.10;;;;;;5018072;28;20034;-66
2022/01/09 08:27:40;;;;;;;101.32;59.05;;;-1.10;93.10;;;;;;5019731;28;20037;-67
2022/01/09 08:30:07;;;;;;;109.85;66.45;;;-1.00;93.10;;;;;;5021655;28;20032;-67
2022/01/09 08:32:33;;;;;;;97.47;55.35;;;-1.00;93.10;;;;;;5019216;28;20513;-67
2022/01/09 08:34:59;;;;;;;85.38;52.17;;;-0.90;93.10;;;;;;5016630;28;20026;-66
2022/01/09 08:37:26;;;;;;;90.22;52.58;;;-1.00;93.30;;;;;;5018285;28;20057;-67
2022/01/09 08:39:51;;;;;;;82.75;50.40;;;-0.90;93.40;;;;;;5016326;28;20058;-67
2022/01/09 08:42:17;;;;;;;67.15;42.80;;;-0.90;93.70;;;;;;5020706;28;20077;-67
2022/01/09 08:44:43;;;;;;;70.68;39.70;;;-1.00;94.10;;;;;;5013343;28;20482;-67
2022/01/09 08:47:09;;;;;;;60.30;35.35;;;-1.10;94.40;;;;;;5019315;28;20063;-66
2022/01/09 08:49:35;;;;;;;57.03;35.35;;;-1.30;94.40;;;;;;5015100;28;20052;-68
2022/01/09 08:52:02;;;;;;;47.67;30.20;;;-1.20;94.40;;;;;;5014509;28;20144;-67
2022/01/09 08:54:27;;;;;;;84.13;47.08;;;-1.20;94.10;;;;;;5019037;28;20442;-67
2022/01/09 08:56:53;;;;;;;57.40;33.15;;;-1.00;94.10;;;;;;5017571;28;20030;-67
2022/01/09 08:59:19;;;;;;;41.03;26.60;;;-0.90;94.00;;;;;;5017627;28;20124;-67
2022/01/09 09:01:46;;;;;;;45.25;28.25;;;-0.80;93.30;;;;;;5018838;28;20116;-68
2022/01/09 09:04:12;;;;;;;42.53;25.83;;;-0.70;93.40;;;;;;5022083;28;20383;-67
2022/01/09 09:06:38;;;;;;;61.25;34.30;;;-0.40;93.10;;;;;;5019870;28;20045;-68
2022/01/09 09:09:04;;;;;;;60.90;34.42;;;-0.20;92.70;;;;;;5010990;28;20565;-66
2022/01/09 09:11:30;;;;;;;46.95;28.08;;;0.00;92.60;;;;;;5015003;28;20120;-67
2022/01/09 09:13:56;;;;;;;45.50;28.17;;;0.20;92.00;;;;;;5013336;28;20043;-68
2022/01/09 09:16:21;;;;;;;49.20;30.30;;;0.30;91.90;;;;;;5011934;28;20022;-68
2022/01/09 09:18:48;;;;;;;66.20;37.67;;;0.50;91.90;;;;;;5014738;28;20132;-68
2022/01/09 09:21:14;;;;;;;58.63;35.53;;;0.60;91.50;;;;;;5013425;28;20025;-67
2022/01/09 09:23:40;;;;;;;62.95;32.55;;;0.50;91.50;;;;;;5016635;28;20049;-68
2022/01/09 09:26:05;;;;;;;49.85;32.40;;;0.60;91.60;;;;;;5018152;28;20066;-68
2022/01/09 09:28:31;;;;;;;47.00;30.45;;;0.70;91.90;;;;;;5017248;28;20122;-68
2022/01/09 09:30:57;;;;;;;49.38;31.45;;;0.80;91.40;;;;;;5016928;28;20119;-68
2022/01/09 09:33:23;;;;;;;49.65;32.08;;;0.90;91.10;;;;;;5014262;28;20045;-68
2022/01/09 09:35:48;;;;;;;49.38;31.55;;;0.80;91.30;;;;;;5016413;28;20066;-68
2022/01/09 09:38:14;;;;;;;49.03;30.08;;;0.80;91.50;;;;;;5014903;28;20038;-68
2022/01/09 09:40:40;;;;;;;40.50;26.52;;;0.80;91.20;;;;;;5017717;28;20488;-67
2022/01/09 09:43:06;;;;;;;39.47;26.50;;;0.80;91.20;;;;;;5016565;28;20496;-67
2022/01/09 09:45:32;;;;;;;35.50;21.73;;;0.70;90.90;;;;;;5017916;28;20152;-67
2022/01/09 09:47:57;;;;;;;38.63;23.48;;;0.40;91.40;;;;;;5020066;28;20088;-67
2022/01/09 09:50:23;;;;;;;62.22;32.25;;;0.50;91.70;;;;;;5020381;28;22328;-66
2022/01/09 09:52:50;;;;;;;50.78;28.75;;;0.60;91.60;;;;;;5017697;28;20038;-66
2022/01/09 09:55:17;;;;;;;47.63;27.70;;;0.90;91.00;;;;;;5017541;28;20412;-67
2022/01/09 09:57:43;;;;;;;49.42;28.00;;;0.90;90.80;;;;;;5008021;28;20454;-66
2022/01/09 10:00:18;;;;;;;63.75;32.45;;;0.90;90.90;;;;;;5014109;28;20033;-67
2022/01/09 10:02:48;;;;;;;69.40;35.15;;;1.00;91.10;;;;;;5013543;28;20851;-68
2022/01/09 10:05:18;;;;;;;61.25;34.97;;;1.20;91.00;;;;;;5013766;28;20092;-67
2022/01/09 10:07:44;;;;;;;45.00;26.42;;;1.30;90.10;;;;;;5018124;28;20083;-69
2022/01/09 10:10:14;;;;;;;34.28;22.42;;;1.00;90.20;;;;;;5018504;28;20084;-68
2022/01/09 10:12:40;;;;;;;33.63;20.77;;;0.90;90.50;;;;;;5018073;28;20029;-67
2022/01/09 10:15:12;;;;;;;62.35;35.03;;;0.80;90.90;;;;;;5014403;28;20786;-68
2022/01/09 10:17:42;;;;;;;;;;;0.80;91.50;;;;;;5019772;28;20126;-68
2022/01/09 10:20:11;;;;;;;23.55;15.20;;;1.00;91.00;;;;;;5018867;28;19921;-68
2022/01/09 10:22:44;;;;;;;34.40;23.58;;;0.80;91.10;;;;;;5015220;28;20061;-68
2022/01/09 10:25:25;;;;;;;61.28;29.88;;;0.60;91.90;;;;;;5015177;28;20048;-68
2022/01/09 10:27:57;;;;;;;107.63;50.55;;;0.80;92.30;;;;;;5020620;28;20131;-68
2022/01/09 10:30:27;;;;;;;72.18;32.17;;;1.00;92.10;;;;;;5016510;28;20088;-68
2022/01/09 10:32:55;;;;;;;54.33;32.38;;;1.30;91.70;;;;;;5019402;28;20033;-66
2022/01/09 10:35:21;;;;;;;136.13;56.35;;;1.30;91.40;;;;;;5018854;28;20048;-68
2022/01/09 10:37:49;;;;;;;24.73;16.60;;;1.40;91.70;;;;;;5017593;28;20037;-68
2022/01/09 10:40:21;;;;;;;44.80;28.02;;;1.30;91.60;;;;;;5014798;28;20037;-68
2022/01/09 10:43:05;;;;;;;31.80;20.35;;;1.10;92.10;;;;;;5018956;28;20025;-69
2022/01/09 10:45:32;;;;;;;26.17;15.55;;;1.20;92.70;;;;;;5013447;28;20495;-68
2022/01/09 10:48:16;;;;;;;24.13;16.13;;;1.00;92.70;;;;;;5016966;28;20041;-69
2022/01/09 10:50:43;;;;;;;24.98;17.00;;;1.00;93.20;;;;;;5013684;28;20400;-68
2022/01/09 10:53:30;;;;;;;32.85;20.58;;;0.90;93.40;;;;;;5014057;28;20107;-68
2022/01/09 10:56:07;;;;;;;29.88;18.27;;;0.90;93.80;;;;;;5014192;28;20049;-67
2022/01/09 10:58:39;;;;;;;24.52;15.82;;;0.90;93.70;;;;;;5016417;28;20033;-68
2022/01/09 11:01:12;;;;;;;25.15;14.90;;;0.80;93.80;;;;;;5017602;28;20539;-68
2022/01/09 11:03:39;;;;;;;31.85;19.55;;;0.80;94.10;;;;;;5016491;28;20071;-68
2022/01/09 11:06:06;;;;;;;28.77;18.65;;;0.90;93.80;;;;;;5021305;28;20049;-68
2022/01/09 11:08:35;;;;;;;24.48;16.77;;;1.10;93.40;;;;;;5024355;28;20550;-68
2022/01/09 11:11:02;;;;;;;29.70;20.25;;;1.00;93.70;;;;;;5021451;28;20025;-68
2022/01/09 11:13:28;;;;;;;43.45;23.15;;;1.00;93.70;;;;;;5022670;28;20510;-68
2022/01/09 11:18:42;;;;;;;37.20;23.52;;;1.50;93.30;;;;;;5017369;28;20055;-68
2022/01/09 11:21:09;;;;;;;43.35;27.10;;;1.80;92.60;;;;;;5015240;28;20033;-68
2022/01/09 11:24:11;;;;;;;42.33;25.20;;;1.90;92.30;;;;;;5012936;28;20484;-67
2022/01/09 11:26:58;;;;;;;22.65;15.57;;;2.10;91.80;;;;;;4989641;28;20069;-68
2022/01/09 11:29:31;;;;;;;33.53;20.75;;;2.10;91.60;;;;;;5014217;28;20049;-68
2022/01/09 11:32:35;;;;;;;29.25;17.17;;;2.10;91.60;;;;;;5013700;28;20057;-68
2022/01/09 11:35:09;;;;;;;22.70;15.70;;;2.30;91.30;;;;;;5021771;28;20034;-68
2022/01/09 11:37:40;;;;;;;22.70;15.38;;;2.30;91.00;;;;;;5020231;28;20040;-68
2022/01/09 11:40:30;;;;;;;22.75;14.65;;;2.30;90.80;;;;;;5020041;28;20832;-68
2022/01/09 11:43:16;;;;;;;25.10;16.10;;;2.30;90.50;;;;;;5018007;28;21201;-68
2022/01/09 11:46:01;;;;;;;23.02;15.30;;;2.30;90.40;;;;;;5017671;28;20083;-66
2022/01/09 11:48:52;;;;;;;27.42;16.92;;;2.40;90.60;;;;;;5016659;28;20061;-68
2022/01/09 11:51:25;;;;;;;24.33;15.63;;;2.50;91.00;;;;;;5017337;28;20480;-67
2022/01/09 11:53:57;;;;;;;23.85;15.70;;;2.50;90.50;;;;;;5015693;28;20487;-66
2022/01/09 11:56:41;;;;;;;19.92;14.95;;;2.40;90.70;;;;;;5023524;28;20025;-69
2022/01/09 11:59:33;;;;;;;23.23;15.45;;;2.30;91.00;;;;;;5019724;28;20026;-68
2022/01/09 12:02:04;;;;;;;22.67;14.27;;;2.30;91.00;;;;;;5019737;28;20488;-67
2022/01/09 12:04:30;;;;;;;;;;;2.00;90.80;;;;;;5019935;28;20041;-67
2022/01/09 12:06:59;;;;;;;28.02;19.42;;;1.80;91.20;;;;;;5018110;28;19917;-67
2022/01/09 12:09:41;;;;;;;27.35;17.02;;;1.80;91.70;;;;;;5025877;28;20025;-67
2022/01/09 12:12:08;;;;;;;;;;;2.00;91.50;;;;;;5021536;28;20034;-68
2022/01/09 12:14:55;;;;;;;29.25;18.65;;;2.00;90.90;;;;;;5019182;28;19917;-67
2022/01/09 12:17:21;;;;;;;26.20;17.60;;;2.10;91.00;;;;;;5024612;28;20045;-68
2022/01/09 12:20:12;;;;;;;27.90;16.98;;;2.30;91.00;;;;;;5021174;28;20038;-67
2022/01/09 12:22:48;;;;;;;23.15;15.63;;;2.50;90.30;;;;;;5020601;28;20480;-68
2022/01/09 12:25:26;;;;;;;26.85;16.42;;;2.40;88.60;;;;;;5022222;28;20021;-68
2022/01/09 12:28:05;;;;;;;22.98;15.38;;;2.30;89.60;;;;;;5021543;28;20049;-67
2022/01/09 12:30:34;;;;;;;23.52;15.85;;;2.40;89.10;;;;;;5018368;28;20024;-67
2022/01/09 12:33:05;;;;;;;21.48;15.05;;;2.70;88.70;;;;;;5023110;28;20116;-68
2022/01/09 12:35:31;;;;;;;22.98;15.85;;;2.80;87.20;;;;;;5018832;28;20100;-69
2022/01/09 12:38:00;;;;;;;22.40;15.80;;;2.60;87.60;;;;;;5023553;28;20444;-68
2022/01/09 12:40:31;;;;;;;20.30;14.85;;;2.50;88.00;;;;;;5023282;28;20060;-68
2022/01/09 12:42:59;;;;;;;23.63;16.08;;;2.60;88.80;;;;;;5021556;28;20025;-67